Crossville, TN

4:38 AM CDT on May 22, 2015 (GMT -0500)
Crossville City Hall | | Change Station
CLOSE
Current Station
Personal Weather Station
Location: Crossville, TN
Elevation: 1867 ft
Nearby Weather Stations

Elev 1867 ft 35.95 °N, 85.03 °W | Updated 11 minutes ago

Clear
Clear
44.5 °F
Feels Like 44 °F
N
0.0
Wind Variable Wind from NW
Gusts 1.0 mph

Today
High -- | Low -- °F
--% Chance of Precip.
Yesterday
High -- | Low -- °F
Precip. -- in
5:29 AM 7:44 PM
Waxing Crescent, 20% visible
Pressure 30.19 in
Visibility 7.0 miles
Clouds Clear
Windchill 44 °F
Dew Point 43 °F
Humidity 95%
Rainfall 0.00 in
Snow Depth Not available.
UV 0 out of 12
Pollen 7.50 out of 12
Air Quality Not available.
Flu Activity No Activity
METAR KCSV 220853Z AUTO 03003KT 7SM CLR 07/06 A3019 RMK AO2 SLP222 T00720056 53005

More Conditions Fewer Conditions

Pressure 30.19 in
Visibility 7.0 miles
Clouds Clear
Windchill 44 °F
Dew Point 43 °F
Humidity 95%
Rainfall 0.00 in
Snow Depth Not available.
UV 0 out of 12
Pollen 7.50 out of 12
Air Quality Not available.
Flu Activity No Activity
METAR KCSV 220853Z AUTO 03003KT 7SM CLR 07/06 A3019 RMK AO2 SLP222 T00720056 53005

More Conditions Fewer Conditions

10-Day Weather Forecast

Almanac

Astronomy

May. 22, 2015 Rise Set
Actual Time
Civil Twilight
Nautical Twilight
Astronomical Twilight
Moon
Length of Visible Light
Length of Day
Tomorrow will be .
, % of the Moon is Illuminated

Today's Extremes

State Highs State Lows

Community

WunderPhotos

Upload Photos

1,823,195 photos uploaded!

WunderBlogs® & News

Nearby

Air Quality

  Air Quality AQ Index Pollutant
Not available.

Snow Depth

Station Depth Elevation

Earthquake Activity

City Distance Mag. Time & Date
Minimum magnitude displayed is 2.5.

Coastal Water Temperatures

Place Temperature

Stations

Nearby Weather Stations

Station Location Temp. Windchill Dew Point Humidity Wind Precip. Elev Updated Type